sensor_id;sensor_type;location;lat;lon;timestamp;temperature;humidity
24430;DHT22;12613;47.408;8.412;2023-09-30T00:00:13;20.60;77.40
24430;DHT22;12613;47.408;8.412;2023-09-30T00:02:42;20.50;77.50
24430;DHT22;12613;47.408;8.412;2023-09-30T00:05:11;20.50;77.80
24430;DHT22;12613;47.408;8.412;2023-09-30T00:07:41;20.50;78.00
24430;DHT22;12613;47.408;8.412;2023-09-30T00:10:09;20.50;78.10
24430;DHT22;12613;47.408;8.412;2023-09-30T00:12:37;20.50;78.30
24430;DHT22;12613;47.408;8.412;2023-09-30T00:15:06;20.50;79.20
24430;DHT22;12613;47.408;8.412;2023-09-30T00:17:34;20.40;78.50
24430;DHT22;12613;47.408;8.412;2023-09-30T00:20:01;20.40;78.70
24430;DHT22;12613;47.408;8.412;2023-09-30T00:22:31;20.40;79.00
24430;DHT22;12613;47.408;8.412;2023-09-30T00:25:00;20.40;79.10
24430;DHT22;12613;47.408;8.412;2023-09-30T00:27:28;20.50;79.40
24430;DHT22;12613;47.408;8.412;2023-09-30T00:29:55;20.40;79.40
24430;DHT22;12613;47.408;8.412;2023-09-30T00:32:23;20.50;79.50
24430;DHT22;12613;47.408;8.412;2023-09-30T00:34:52;20.40;79.40
24430;DHT22;12613;47.408;8.412;2023-09-30T00:37:20;20.40;79.50
24430;DHT22;12613;47.408;8.412;2023-09-30T00:39:49;20.30;79.30
24430;DHT22;12613;47.408;8.412;2023-09-30T00:42:17;20.30;79.60
24430;DHT22;12613;47.408;8.412;2023-09-30T00:44:47;20.30;79.70
24430;DHT22;12613;47.408;8.412;2023-09-30T00:47:15;20.20;79.80
24430;DHT22;12613;47.408;8.412;2023-09-30T00:49:44;20.20;80.10
24430;DHT22;12613;47.408;8.412;2023-09-30T00:52:12;20.20;80.10
24430;DHT22;12613;47.408;8.412;2023-09-30T00:54:39;20.20;80.30
24430;DHT22;12613;47.408;8.412;2023-09-30T00:57:08;20.20;80.30
24430;DHT22;12613;47.408;8.412;2023-09-30T00:59:37;20.20;80.40
24430;DHT22;12613;47.408;8.412;2023-09-30T01:02:05;20.20;80.50
24430;DHT22;12613;47.408;8.412;2023-09-30T01:04:34;20.20;80.60
24430;DHT22;12613;47.408;8.412;2023-09-30T01:07:02;20.10;80.70
24430;DHT22;12613;47.408;8.412;2023-09-30T01:09:31;20.20;80.90
24430;DHT22;12613;47.408;8.412;2023-09-30T01:12:00;20.10;80.90
24430;DHT22;12613;47.408;8.412;2023-09-30T01:14:30;20.10;81.30
24430;DHT22;12613;47.408;8.412;2023-09-30T01:16:58;20.20;81.50
24430;DHT22;12613;47.408;8.412;2023-09-30T01:19:26;20.10;81.50
24430;DHT22;12613;47.408;8.412;2023-09-30T01:21:55;20.10;81.40
24430;DHT22;12613;47.408;8.412;2023-09-30T01:24:27;20.10;81.60
24430;DHT22;12613;47.408;8.412;2023-09-30T01:26:56;20.10;81.70
24430;DHT22;12613;47.408;8.412;2023-09-30T01:29:23;20.00;81.70
24430;DHT22;12613;47.408;8.412;2023-09-30T01:31:54;20.10;81.90
24430;DHT22;12613;47.408;8.412;2023-09-30T01:34:22;20.00;81.90
24430;DHT22;12613;47.408;8.412;2023-09-30T01:36:51;20.00;82.20
24430;DHT22;12613;47.408;8.412;2023-09-30T01:39:19;20.00;82.30
24430;DHT22;12613;47.408;8.412;2023-09-30T01:41:50;20.00;82.40
24430;DHT22;12613;47.408;8.412;2023-09-30T01:44:26;20.00;82.50
24430;DHT22;12613;47.408;8.412;2023-09-30T01:46:55;20.00;82.50
24430;DHT22;12613;47.408;8.412;2023-09-30T01:49:24;20.00;82.80
24430;DHT22;12613;47.408;8.412;2023-09-30T01:51:52;20.00;82.90
24430;DHT22;12613;47.408;8.412;2023-09-30T01:54:21;20.00;83.20
24430;DHT22;12613;47.408;8.412;2023-09-30T01:56:49;20.00;83.30
24430;DHT22;12613;47.408;8.412;2023-09-30T01:59:17;19.90;83.50
24430;DHT22;12613;47.408;8.412;2023-09-30T02:01:44;19.90;83.50
24430;DHT22;12613;47.408;8.412;2023-09-30T02:04:13;20.00;83.70
24430;DHT22;12613;47.408;8.412;2023-09-30T02:06:44;19.90;83.70
24430;DHT22;12613;47.408;8.412;2023-09-30T02:09:13;19.90;83.80
24430;DHT22;12613;47.408;8.412;2023-09-30T02:11:41;19.80;83.90
24430;DHT22;12613;47.408;8.412;2023-09-30T02:14:10;19.80;84.70
24430;DHT22;12613;47.408;8.412;2023-09-30T02:16:41;19.80;84.00
24430;DHT22;12613;47.408;8.412;2023-09-30T02:19:09;19.80;84.40
24430;DHT22;12613;47.408;8.412;2023-09-30T02:21:37;19.80;84.60
24430;DHT22;12613;47.408;8.412;2023-09-30T02:24:04;19.80;84.70
24430;DHT22;12613;47.408;8.412;2023-09-30T02:26:33;19.80;84.90
24430;DHT22;12613;47.408;8.412;2023-09-30T02:29:02;19.80;85.10
24430;DHT22;12613;47.408;8.412;2023-09-30T02:31:32;19.80;85.20
24430;DHT22;12613;47.408;8.412;2023-09-30T02:34:00;19.80;85.20
24430;DHT22;12613;47.408;8.412;2023-09-30T02:36:29;19.80;85.30
24430;DHT22;12613;47.408;8.412;2023-09-30T02:38:57;19.80;85.30
24430;DHT22;12613;47.408;8.412;2023-09-30T02:41:25;19.80;85.40
24430;DHT22;12613;47.408;8.412;2023-09-30T02:43:53;19.80;85.50
24430;DHT22;12613;47.408;8.412;2023-09-30T02:46:22;19.80;85.60
24430;DHT22;12613;47.408;8.412;2023-09-30T02:48:50;19.70;85.60
24430;DHT22;12613;47.408;8.412;2023-09-30T02:51:19;19.70;85.70
24430;DHT22;12613;47.408;8.412;2023-09-30T02:53:47;19.70;86.60
24430;DHT22;12613;47.408;8.412;2023-09-30T02:56:15;19.70;85.90
24430;DHT22;12613;47.408;8.412;2023-09-30T02:58:43;19.70;86.00
24430;DHT22;12613;47.408;8.412;2023-09-30T03:01:14;19.70;86.30
24430;DHT22;12613;47.408;8.412;2023-09-30T03:03:46;19.70;86.40
24430;DHT22;12613;47.408;8.412;2023-09-30T03:06:15;19.70;86.40
24430;DHT22;12613;47.408;8.412;2023-09-30T03:08:45;19.60;86.50
24430;DHT22;12613;47.408;8.412;2023-09-30T03:11:14;19.70;86.80
24430;DHT22;12613;47.408;8.412;2023-09-30T03:13:42;19.60;86.80
24430;DHT22;12613;47.408;8.412;2023-09-30T03:16:11;19.60;87.00
24430;DHT22;12613;47.408;8.412;2023-09-30T03:18:38;19.60;87.00
24430;DHT22;12613;47.408;8.412;2023-09-30T03:21:14;19.60;87.10
24430;DHT22;12613;47.408;8.412;2023-09-30T03:23:43;19.60;87.10
24430;DHT22;12613;47.408;8.412;2023-09-30T03:26:11;19.60;87.20
24430;DHT22;12613;47.408;8.412;2023-09-30T03:28:40;19.60;87.40
24430;DHT22;12613;47.408;8.412;2023-09-30T03:31:08;19.50;87.00
24430;DHT22;12613;47.408;8.412;2023-09-30T03:33:38;19.50;86.90
24430;DHT22;12613;47.408;8.412;2023-09-30T03:36:09;19.50;87.30
24430;DHT22;12613;47.408;8.412;2023-09-30T03:38:39;19.40;87.20
24430;DHT22;12613;47.408;8.412;2023-09-30T03:41:08;19.40;87.40
24430;DHT22;12613;47.408;8.412;2023-09-30T03:43:37;19.40;87.60
24430;DHT22;12613;47.408;8.412;2023-09-30T03:46:10;19.40;87.70
24430;DHT22;12613;47.408;8.412;2023-09-30T03:48:39;19.40;87.80
24430;DHT22;12613;47.408;8.412;2023-09-30T03:51:14;19.40;87.90
24430;DHT22;12613;47.408;8.412;2023-09-30T03:53:42;19.40;87.90
24430;DHT22;12613;47.408;8.412;2023-09-30T03:56:11;19.40;87.80
24430;DHT22;12613;47.408;8.412;2023-09-30T03:58:42;19.30;87.80
24430;DHT22;12613;47.408;8.412;2023-09-30T04:01:11;19.30;87.90
24430;DHT22;12613;47.408;8.412;2023-09-30T04:03:43;19.30;88.00
24430;DHT22;12613;47.408;8.412;2023-09-30T04:06:12;19.30;88.10
24430;DHT22;12613;47.408;8.412;2023-09-30T04:08:40;19.30;88.00
24430;DHT22;12613;47.408;8.412;2023-09-30T04:11:11;19.30;88.00
24430;DHT22;12613;47.408;8.412;2023-09-30T04:13:44;19.30;88.10
24430;DHT22;12613;47.408;8.412;2023-09-30T04:16:13;19.30;88.00
24430;DHT22;12613;47.408;8.412;2023-09-30T04:18:42;19.30;88.10
24430;DHT22;12613;47.408;8.412;2023-09-30T04:21:10;19.30;88.10
24430;DHT22;12613;47.408;8.412;2023-09-30T04:23:37;19.30;88.10
24430;DHT22;12613;47.408;8.412;2023-09-30T04:26:05;19.30;88.30
24430;DHT22;12613;47.408;8.412;2023-09-30T04:28:37;19.20;88.10
24430;DHT22;12613;47.408;8.412;2023-09-30T04:31:05;19.20;88.30
24430;DHT22;12613;47.408;8.412;2023-09-30T04:33:38;19.20;88.40
24430;DHT22;12613;47.408;8.412;2023-09-30T04:36:06;19.20;88.50
24430;DHT22;12613;47.408;8.412;2023-09-30T04:38:38;19.20;88.50
24430;DHT22;12613;47.408;8.412;2023-09-30T04:41:17;19.20;88.50
24430;DHT22;12613;47.408;8.412;2023-09-30T04:43:46;19.10;88.40
24430;DHT22;12613;47.408;8.412;2023-09-30T04:46:15;19.10;88.30
24430;DHT22;12613;47.408;8.412;2023-09-30T04:48:48;19.10;88.50
24430;DHT22;12613;47.408;8.412;2023-09-30T04:51:18;19.10;88.70
24430;DHT22;12613;47.408;8.412;2023-09-30T04:53:47;19.10;88.70
24430;DHT22;12613;47.408;8.412;2023-09-30T04:56:20;19.10;88.90
24430;DHT22;12613;47.408;8.412;2023-09-30T04:58:49;19.00;88.80
24430;DHT22;12613;47.408;8.412;2023-09-30T05:01:16;19.00;88.80
24430;DHT22;12613;47.408;8.412;2023-09-30T05:03:45;19.00;88.90
24430;DHT22;12613;47.408;8.412;2023-09-30T05:06:16;19.00;89.00
24430;DHT22;12613;47.408;8.412;2023-09-30T05:08:44;19.00;89.10
24430;DHT22;12613;47.408;8.412;2023-09-30T05:11:13;19.00;89.30
24430;DHT22;12613;47.408;8.412;2023-09-30T05:13:41;19.00;89.30
24430;DHT22;12613;47.408;8.412;2023-09-30T05:16:09;19.00;89.40
24430;DHT22;12613;47.408;8.412;2023-09-30T05:18:39;19.00;89.50
24430;DHT22;12613;47.408;8.412;2023-09-30T05:21:07;18.90;89.60
24430;DHT22;12613;47.408;8.412;2023-09-30T05:23:37;18.90;89.70
24430;DHT22;12613;47.408;8.412;2023-09-30T05:26:05;18.90;89.70
24430;DHT22;12613;47.408;8.412;2023-09-30T05:28:34;18.90;89.80
24430;DHT22;12613;47.408;8.412;2023-09-30T05:31:02;18.90;90.00
24430;DHT22;12613;47.408;8.412;2023-09-30T05:33:31;18.90;90.00
24430;DHT22;12613;47.408;8.412;2023-09-30T05:35:59;18.90;90.10
24430;DHT22;12613;47.408;8.412;2023-09-30T05:38:30;18.80;90.10
24430;DHT22;12613;47.408;8.412;2023-09-30T05:41:00;18.80;90.10
24430;DHT22;12613;47.408;8.412;2023-09-30T05:43:28;18.90;90.20
24430;DHT22;12613;47.408;8.412;2023-09-30T05:45:57;18.80;90.20
24430;DHT22;12613;47.408;8.412;2023-09-30T05:48:25;18.80;90.30
24430;DHT22;12613;47.408;8.412;2023-09-30T05:50:54;18.80;90.30
24430;DHT22;12613;47.408;8.412;2023-09-30T05:53:22;18.80;90.40
24430;DHT22;12613;47.408;8.412;2023-09-30T05:55:50;18.80;90.30
24430;DHT22;12613;47.408;8.412;2023-09-30T05:58:18;18.80;90.40
24430;DHT22;12613;47.408;8.412;2023-09-30T06:00:47;18.80;90.50
24430;DHT22;12613;47.408;8.412;2023-09-30T06:03:16;18.80;90.50
24430;DHT22;12613;47.408;8.412;2023-09-30T06:05:43;18.80;90.60
24430;DHT22;12613;47.408;8.412;2023-09-30T06:08:12;18.80;90.60
24430;DHT22;12613;47.408;8.412;2023-09-30T06:10:47;18.80;90.50
24430;DHT22;12613;47.408;8.412;2023-09-30T06:13:15;18.80;90.50
24430;DHT22;12613;47.408;8.412;2023-09-30T06:15:44;18.80;90.50
24430;DHT22;12613;47.408;8.412;2023-09-30T06:18:13;18.70;90.40
24430;DHT22;12613;47.408;8.412;2023-09-30T06:20:41;18.70;90.60
24430;DHT22;12613;47.408;8.412;2023-09-30T06:23:10;18.70;90.70
24430;DHT22;12613;47.408;8.412;2023-09-30T06:25:37;18.70;90.80
24430;DHT22;12613;47.408;8.412;2023-09-30T06:28:07;18.80;90.70
24430;DHT22;12613;47.408;8.412;2023-09-30T06:30:37;18.80;90.80
24430;DHT22;12613;47.408;8.412;2023-09-30T06:33:09;18.80;91.00
24430;DHT22;12613;47.408;8.412;2023-09-30T06:35:41;18.90;91.00
24430;DHT22;12613;47.408;8.412;2023-09-30T06:38:21;18.90;91.00
24430;DHT22;12613;47.408;8.412;2023-09-30T06:40:50;18.90;91.20
24430;DHT22;12613;47.408;8.412;2023-09-30T06:43:18;19.00;91.20
24430;DHT22;12613;47.408;8.412;2023-09-30T06:45:47;19.00;91.10
24430;DHT22;12613;47.408;8.412;2023-09-30T06:48:16;19.10;91.10
24430;DHT22;12613;47.408;8.412;2023-09-30T06:50:48;19.10;91.00
24430;DHT22;12613;47.408;8.412;2023-09-30T06:53:17;19.10;90.70
24430;DHT22;12613;47.408;8.412;2023-09-30T06:55:46;19.00;90.60
24430;DHT22;12613;47.408;8.412;2023-09-30T06:58:14;19.00;90.90
24430;DHT22;12613;47.408;8.412;2023-09-30T07:00:46;19.00;90.80
24430;DHT22;12613;47.408;8.412;2023-09-30T07:03:15;19.00;90.90
24430;DHT22;12613;47.408;8.412;2023-09-30T07:05:43;19.00;90.80
24430;DHT22;12613;47.408;8.412;2023-09-30T07:08:20;19.00;90.80
24430;DHT22;12613;47.408;8.412;2023-09-30T07:10:51;19.00;90.80
24430;DHT22;12613;47.408;8.412;2023-09-30T07:13:20;19.10;91.00
24430;DHT22;12613;47.408;8.412;2023-09-30T07:15:50;19.20;91.00
24430;DHT22;12613;47.408;8.412;2023-09-30T07:18:19;19.20;91.00
24430;DHT22;12613;47.408;8.412;2023-09-30T07:20:47;19.30;90.90
24430;DHT22;12613;47.408;8.412;2023-09-30T07:23:16;19.30;90.70
24430;DHT22;12613;47.408;8.412;2023-09-30T07:25:44;19.20;90.50
24430;DHT22;12613;47.408;8.412;2023-09-30T07:28:12;19.20;90.80
24430;DHT22;12613;47.408;8.412;2023-09-30T07:30:41;19.30;90.80
24430;DHT22;12613;47.408;8.412;2023-09-30T07:33:08;19.30;90.90
24430;DHT22;12613;47.408;8.412;2023-09-30T07:35:37;19.40;90.70
24430;DHT22;12613;47.408;8.412;2023-09-30T07:38:05;19.40;90.60
24430;DHT22;12613;47.408;8.412;2023-09-30T07:40:34;19.40;90.60
24430;DHT22;12613;47.408;8.412;2023-09-30T07:43:01;19.40;90.60
24430;DHT22;12613;47.408;8.412;2023-09-30T07:45:29;19.50;90.40
24430;DHT22;12613;47.408;8.412;2023-09-30T07:47:58;19.50;90.40
24430;DHT22;12613;47.408;8.412;2023-09-30T07:50:26;19.50;90.30
24430;DHT22;12613;47.408;8.412;2023-09-30T07:52:54;19.50;90.50
24430;DHT22;12613;47.408;8.412;2023-09-30T07:55:27;19.50;90.10
24430;DHT22;12613;47.408;8.412;2023-09-30T07:57:57;19.50;90.30
24430;DHT22;12613;47.408;8.412;2023-09-30T08:00:27;19.60;90.20
24430;DHT22;12613;47.408;8.412;2023-09-30T08:02:56;19.60;90.10
24430;DHT22;12613;47.408;8.412;2023-09-30T08:05:27;19.60;89.80
24430;DHT22;12613;47.408;8.412;2023-09-30T08:07:55;19.60;89.80
24430;DHT22;12613;47.408;8.412;2023-09-30T08:10:23;19.60;90.00
24430;DHT22;12613;47.408;8.412;2023-09-30T08:12:50;19.70;89.90
24430;DHT22;12613;47.408;8.412;2023-09-30T08:15:20;19.70;88.90
24430;DHT22;12613;47.408;8.412;2023-09-30T08:17:48;19.70;89.30
24430;DHT22;12613;47.408;8.412;2023-09-30T08:20:17;19.70;89.70
24430;DHT22;12613;47.408;8.412;2023-09-30T08:22:45;19.80;89.50
24430;DHT22;12613;47.408;8.412;2023-09-30T08:25:13;19.90;89.10
24430;DHT22;12613;47.408;8.412;2023-09-30T08:27:41;20.00;88.90
24430;DHT22;12613;47.408;8.412;2023-09-30T08:30:09;20.00;88.50
24430;DHT22;12613;47.408;8.412;2023-09-30T08:32:38;20.00;88.70
24430;DHT22;12613;47.408;8.412;2023-09-30T08:35:07;20.00;87.70
24430;DHT22;12613;47.408;8.412;2023-09-30T08:37:36;20.00;87.90
24430;DHT22;12613;47.408;8.412;2023-09-30T08:40:05;20.00;87.90
24430;DHT22;12613;47.408;8.412;2023-09-30T08:42:34;20.00;87.90
24430;DHT22;12613;47.408;8.412;2023-09-30T08:45:05;20.10;88.60
24430;DHT22;12613;47.408;8.412;2023-09-30T08:47:36;20.20;88.70
24430;DHT22;12613;47.408;8.412;2023-09-30T08:50:10;20.30;88.30
24430;DHT22;12613;47.408;8.412;2023-09-30T08:52:41;20.40;88.10
24430;DHT22;12613;47.408;8.412;2023-09-30T08:55:11;20.40;87.70
24430;DHT22;12613;47.408;8.412;2023-09-30T08:57:41;20.50;87.00
24430;DHT22;12613;47.408;8.412;2023-09-30T09:00:10;20.60;87.10
24430;DHT22;12613;47.408;8.412;2023-09-30T09:02:41;20.60;86.70
24430;DHT22;12613;47.408;8.412;2023-09-30T09:05:10;20.70;86.90
24430;DHT22;12613;47.408;8.412;2023-09-30T09:07:38;20.80;86.90
24430;DHT22;12613;47.408;8.412;2023-09-30T09:10:07;20.90;87.00
24430;DHT22;12613;47.408;8.412;2023-09-30T09:12:37;21.00;86.70
24430;DHT22;12613;47.408;8.412;2023-09-30T09:15:19;21.10;86.60
24430;DHT22;12613;47.408;8.412;2023-09-30T09:17:48;21.20;86.00
24430;DHT22;12613;47.408;8.412;2023-09-30T09:20:19;21.40;85.70
24430;DHT22;12613;47.408;8.412;2023-09-30T09:22:51;21.50;84.40
24430;DHT22;12613;47.408;8.412;2023-09-30T09:25:21;21.50;84.80
24430;DHT22;12613;47.408;8.412;2023-09-30T09:27:53;21.60;84.70
24430;DHT22;12613;47.408;8.412;2023-09-30T09:30:25;21.70;84.90
24430;DHT22;12613;47.408;8.412;2023-09-30T09:33:00;21.90;84.90
24430;DHT22;12613;47.408;8.412;2023-09-30T09:35:28;21.90;83.20
24430;DHT22;12613;47.408;8.412;2023-09-30T09:38:07;22.00;82.90
24430;DHT22;12613;47.408;8.412;2023-09-30T09:40:37;22.00;82.90
24430;DHT22;12613;47.408;8.412;2023-09-30T09:43:06;22.10;83.20
24430;DHT22;12613;47.408;8.412;2023-09-30T09:45:36;22.20;81.80
24430;DHT22;12613;47.408;8.412;2023-09-30T09:48:06;22.20;81.90
24430;DHT22;12613;47.408;8.412;2023-09-30T09:50:35;22.20;81.60
24430;DHT22;12613;47.408;8.412;2023-09-30T09:53:05;22.30;81.40
24430;DHT22;12613;47.408;8.412;2023-09-30T09:55:33;22.40;80.80
24430;DHT22;12613;47.408;8.412;2023-09-30T09:58:07;22.40;80.30
24430;DHT22;12613;47.408;8.412;2023-09-30T10:00:36;22.40;79.90
24430;DHT22;12613;47.408;8.412;2023-09-30T10:03:06;22.30;78.90
24430;DHT22;12613;47.408;8.412;2023-09-30T10:05:39;22.30;79.60
24430;DHT22;12613;47.408;8.412;2023-09-30T10:08:14;22.30;80.40
24430;DHT22;12613;47.408;8.412;2023-09-30T10:10:49;22.30;79.40
24430;DHT22;12613;47.408;8.412;2023-09-30T10:13:52;22.30;79.60
24430;DHT22;12613;47.408;8.412;2023-09-30T10:19:17;22.50;79.30
24430;DHT22;12613;47.408;8.412;2023-09-30T10:24:57;22.70;79.50
24430;DHT22;12613;47.408;8.412;2023-09-30T10:27:29;22.70;78.50
24430;DHT22;12613;47.408;8.412;2023-09-30T10:40:53;23.00;76.30
24430;DHT22;12613;47.408;8.412;2023-09-30T10:43:30;22.90;75.90
24430;DHT22;12613;47.408;8.412;2023-09-30T10:46:32;22.90;76.10
24430;DHT22;12613;47.408;8.412;2023-09-30T10:51:55;23.10;76.70
24430;DHT22;12613;47.408;8.412;2023-09-30T10:54:28;23.20;76.20
24430;DHT22;12613;47.408;8.412;2023-09-30T10:56:58;23.30;77.10
24430;DHT22;12613;47.408;8.412;2023-09-30T10:59:29;23.40;76.10
24430;DHT22;12613;47.408;8.412;2023-09-30T11:02:02;23.50;74.00
24430;DHT22;12613;47.408;8.412;2023-09-30T11:04:44;23.50;74.90
24430;DHT22;12613;47.408;8.412;2023-09-30T11:07:23;23.50;73.60
24430;DHT22;12613;47.408;8.412;2023-09-30T11:09:53;23.50;73.70
24430;DHT22;12613;47.408;8.412;2023-09-30T11:12:21;23.60;73.10
24430;DHT22;12613;47.408;8.412;2023-09-30T11:14:58;23.60;73.80
24430;DHT22;12613;47.408;8.412;2023-09-30T11:17:25;23.70;73.40
24430;DHT22;12613;47.408;8.412;2023-09-30T11:19:52;23.70;72.40
24430;DHT22;12613;47.408;8.412;2023-09-30T11:22:26;23.80;72.90
24430;DHT22;12613;47.408;8.412;2023-09-30T11:24:57;23.80;71.80
24430;DHT22;12613;47.408;8.412;2023-09-30T11:27:26;23.90;73.50
24430;DHT22;12613;47.408;8.412;2023-09-30T11:29:54;24.00;72.60
24430;DHT22;12613;47.408;8.412;2023-09-30T11:32:27;24.10;71.80
24430;DHT22;12613;47.408;8.412;2023-09-30T11:35:01;24.20;71.90
24430;DHT22;12613;47.408;8.412;2023-09-30T11:37:33;24.20;71.80
24430;DHT22;12613;47.408;8.412;2023-09-30T11:40:12;24.30;71.90
24430;DHT22;12613;47.408;8.412;2023-09-30T11:42:41;24.60;71.60
24430;DHT22;12613;47.408;8.412;2023-09-30T11:45:21;24.70;71.00
24430;DHT22;12613;47.408;8.412;2023-09-30T11:47:56;24.80;71.00
24430;DHT22;12613;47.408;8.412;2023-09-30T11:50:24;25.00;70.50
24430;DHT22;12613;47.408;8.412;2023-09-30T11:53:19;25.00;69.10
24430;DHT22;12613;47.408;8.412;2023-09-30T11:55:49;25.10;69.50
24430;DHT22;12613;47.408;8.412;2023-09-30T11:58:28;25.10;67.70
24430;DHT22;12613;47.408;8.412;2023-09-30T12:00:58;25.10;67.50
24430;DHT22;12613;47.408;8.412;2023-09-30T12:03:30;25.10;67.40
24430;DHT22;12613;47.408;8.412;2023-09-30T12:06:07;25.00;67.20
24430;DHT22;12613;47.408;8.412;2023-09-30T12:08:40;25.00;66.50
24430;DHT22;12613;47.408;8.412;2023-09-30T12:11:09;24.90;66.80
24430;DHT22;12613;47.408;8.412;2023-09-30T12:13:40;24.90;67.00
24430;DHT22;12613;47.408;8.412;2023-09-30T12:16:12;24.90;66.70
24430;DHT22;12613;47.408;8.412;2023-09-30T12:18:40;24.80;66.00
24430;DHT22;12613;47.408;8.412;2023-09-30T12:21:11;24.80;65.80
24430;DHT22;12613;47.408;8.412;2023-09-30T12:23:39;24.70;66.60
24430;DHT22;12613;47.408;8.412;2023-09-30T12:26:10;24.70;66.70
24430;DHT22;12613;47.408;8.412;2023-09-30T12:28:38;24.80;66.40
24430;DHT22;12613;47.408;8.412;2023-09-30T12:31:07;24.70;66.10
24430;DHT22;12613;47.408;8.412;2023-09-30T12:33:39;24.70;67.30
24430;DHT22;12613;47.408;8.412;2023-09-30T12:36:07;24.70;65.50
24430;DHT22;12613;47.408;8.412;2023-09-30T12:38:36;24.80;67.20
24430;DHT22;12613;47.408;8.412;2023-09-30T12:41:08;24.90;66.90
24430;DHT22;12613;47.408;8.412;2023-09-30T12:43:38;25.00;66.70
24430;DHT22;12613;47.408;8.412;2023-09-30T12:46:12;25.10;66.40
24430;DHT22;12613;47.408;8.412;2023-09-30T12:48:41;25.10;64.90
24430;DHT22;12613;47.408;8.412;2023-09-30T12:51:10;25.00;64.70
24430;DHT22;12613;47.408;8.412;2023-09-30T12:53:40;25.00;64.40
24430;DHT22;12613;47.408;8.412;2023-09-30T12:56:09;24.90;64.90
24430;DHT22;12613;47.408;8.412;2023-09-30T12:58:40;25.00;63.90
24430;DHT22;12613;47.408;8.412;2023-09-30T13:01:14;25.00;64.80
24430;DHT22;12613;47.408;8.412;2023-09-30T13:03:46;25.00;64.00
24430;DHT22;12613;47.408;8.412;2023-09-30T13:06:15;25.10;64.20
24430;DHT22;12613;47.408;8.412;2023-09-30T13:08:48;25.10;63.50
24430;DHT22;12613;47.408;8.412;2023-09-30T13:11:20;25.20;63.30
24430;DHT22;12613;47.408;8.412;2023-09-30T13:13:48;25.30;64.10
24430;DHT22;12613;47.408;8.412;2023-09-30T13:16:17;25.50;64.50
24430;DHT22;12613;47.408;8.412;2023-09-30T13:18:45;25.60;63.80
24430;DHT22;12613;47.408;8.412;2023-09-30T13:21:14;25.70;62.90
24430;DHT22;12613;47.408;8.412;2023-09-30T13:23:43;25.70;62.70
24430;DHT22;12613;47.408;8.412;2023-09-30T13:26:11;25.80;63.30
24430;DHT22;12613;47.408;8.412;2023-09-30T13:28:39;25.80;61.90
24430;DHT22;12613;47.408;8.412;2023-09-30T13:31:07;25.80;61.60
24430;DHT22;12613;47.408;8.412;2023-09-30T13:33:36;25.80;62.30
24430;DHT22;12613;47.408;8.412;2023-09-30T13:36:05;25.80;61.80
24430;DHT22;12613;47.408;8.412;2023-09-30T13:38:35;25.80;61.80
24430;DHT22;12613;47.408;8.412;2023-09-30T13:41:10;25.80;61.20
24430;DHT22;12613;47.408;8.412;2023-09-30T13:43:38;25.70;60.60
24430;DHT22;12613;47.408;8.412;2023-09-30T13:46:07;25.70;61.30
24430;DHT22;12613;47.408;8.412;2023-09-30T13:48:37;25.70;62.00
24430;DHT22;12613;47.408;8.412;2023-09-30T13:51:09;25.70;60.30
24430;DHT22;12613;47.408;8.412;2023-09-30T13:53:37;25.50;61.00
24430;DHT22;12613;47.408;8.412;2023-09-30T13:56:07;25.60;61.90
24430;DHT22;12613;47.408;8.412;2023-09-30T13:58:34;25.60;61.40
24430;DHT22;12613;47.408;8.412;2023-09-30T14:01:03;25.70;61.90
24430;DHT22;12613;47.408;8.412;2023-09-30T14:03:32;25.90;62.70
24430;DHT22;12613;47.408;8.412;2023-09-30T14:06:01;26.10;62.00
24430;DHT22;12613;47.408;8.412;2023-09-30T14:08:29;26.40;61.50
24430;DHT22;12613;47.408;8.412;2023-09-30T14:10:57;26.60;61.40
24430;DHT22;12613;47.408;8.412;2023-09-30T14:13:26;26.80;59.90
24430;DHT22;12613;47.408;8.412;2023-09-30T14:15:54;26.90;60.40
24430;DHT22;12613;47.408;8.412;2023-09-30T14:18:23;26.90;59.40
24430;DHT22;12613;47.408;8.412;2023-09-30T14:20:50;27.00;58.70
24430;DHT22;12613;47.408;8.412;2023-09-30T14:23:19;26.80;57.90
24430;DHT22;12613;47.408;8.412;2023-09-30T14:25:55;26.70;57.30
24430;DHT22;12613;47.408;8.412;2023-09-30T14:28:24;26.60;57.10
24430;DHT22;12613;47.408;8.412;2023-09-30T14:30:52;26.50;57.10
24430;DHT22;12613;47.408;8.412;2023-09-30T14:33:21;26.20;56.00
24430;DHT22;12613;47.408;8.412;2023-09-30T14:35:49;26.00;56.50
24430;DHT22;12613;47.408;8.412;2023-09-30T14:38:20;25.80;56.90
24430;DHT22;12613;47.408;8.412;2023-09-30T14:40:48;25.70;57.20
24430;DHT22;12613;47.408;8.412;2023-09-30T14:43:20;25.50;57.30
24430;DHT22;12613;47.408;8.412;2023-09-30T14:45:49;25.50;58.20
24430;DHT22;12613;47.408;8.412;2023-09-30T14:48:18;25.40;58.70
24430;DHT22;12613;47.408;8.412;2023-09-30T14:50:54;25.30;59.00
24430;DHT22;12613;47.408;8.412;2023-09-30T14:53:24;25.40;59.50
24430;DHT22;12613;47.408;8.412;2023-09-30T14:55:52;25.70;60.50
24430;DHT22;12613;47.408;8.412;2023-09-30T14:58:21;25.70;58.40
24430;DHT22;12613;47.408;8.412;2023-09-30T15:00:49;25.60;58.30
24430;DHT22;12613;47.408;8.412;2023-09-30T15:03:18;25.30;57.90
24430;DHT22;12613;47.408;8.412;2023-09-30T15:05:56;25.20;58.70
24430;DHT22;12613;47.408;8.412;2023-09-30T15:08:30;25.20;59.00
24430;DHT22;12613;47.408;8.412;2023-09-30T15:11:02;25.20;60.90
24430;DHT22;12613;47.408;8.412;2023-09-30T15:13:33;25.30;59.60
24430;DHT22;12613;47.408;8.412;2023-09-30T15:16:04;25.30;59.70
24430;DHT22;12613;47.408;8.412;2023-09-30T15:18:33;25.30;59.90
24430;DHT22;12613;47.408;8.412;2023-09-30T15:21:01;25.20;59.80
24430;DHT22;12613;47.408;8.412;2023-09-30T15:23:29;25.20;60.00
24430;DHT22;12613;47.408;8.412;2023-09-30T15:25:59;25.30;60.90
24430;DHT22;12613;47.408;8.412;2023-09-30T15:28:28;25.40;62.20
24430;DHT22;12613;47.408;8.412;2023-09-30T15:30:59;25.50;60.10
24430;DHT22;12613;47.408;8.412;2023-09-30T15:33:28;25.50;61.40
24430;DHT22;12613;47.408;8.412;2023-09-30T15:35:57;25.70;64.00
24430;DHT22;12613;47.408;8.412;2023-09-30T15:38:25;26.10;62.70
24430;DHT22;12613;47.408;8.412;2023-09-30T15:40:57;26.30;62.00
24430;DHT22;12613;47.408;8.412;2023-09-30T15:43:25;26.70;63.90
24430;DHT22;12613;47.408;8.412;2023-09-30T15:45:54;27.20;63.60
24430;DHT22;12613;47.408;8.412;2023-09-30T15:48:24;27.80;62.10
24430;DHT22;12613;47.408;8.412;2023-09-30T15:50:56;28.10;57.90
24430;DHT22;12613;47.408;8.412;2023-09-30T15:53:24;27.90;56.80
24430;DHT22;12613;47.408;8.412;2023-09-30T15:55:52;27.90;58.20
24430;DHT22;12613;47.408;8.412;2023-09-30T15:58:22;28.30;59.00
24430;DHT22;12613;47.408;8.412;2023-09-30T16:00:50;28.50;57.80
24430;DHT22;12613;47.408;8.412;2023-09-30T16:03:19;28.90;58.00
24430;DHT22;12613;47.408;8.412;2023-09-30T16:05:47;29.00;56.70